Time;durP1;ratioP1;P1;durP2;ratioP2;P2;SDS_P1;SDS_P2;PMS_P1;PMS_P2;Temp;Humidity;BMP_temperature;BMP_pressure;BME280_temperature;BME280_humidity;BME280_pressure;Samples;Min_cycle;Max_cycle;Signal;HPM_P1;HPM_P2
2020/12/16 00:02:24;;;;;;;13.35;7.10;;;7.40;99.90;;;;;;5014253;28;20073;-78
2020/12/16 00:04:51;;;;;;;16.05;8.60;;;7.50;99.90;;;;;;5014160;28;20234;-78
2020/12/16 00:07:17;;;;;;;14.35;7.60;;;7.50;99.90;;;;;;5010813;28;20275;-78
2020/12/16 00:09:43;;;;;;;12.02;7.47;;;7.50;99.90;;;;;;5018002;28;20030;-80
2020/12/16 00:12:08;;;;;;;16.75;7.32;;;7.50;99.90;;;;;;5018982;28;20486;-81
2020/12/16 00:14:34;;;;;;;18.27;8.40;;;7.50;99.90;;;;;;5017369;28;20378;-80
2020/12/16 00:17:00;;;;;;;16.73;7.10;;;7.50;99.90;;;;;;5022726;28;20044;-81
2020/12/16 00:19:25;;;;;;;16.30;8.05;;;7.50;99.90;;;;;;5017111;28;20431;-81
2020/12/16 00:21:51;;;;;;;16.75;7.68;;;7.40;99.90;;;;;;5022124;28;20057;-79
2020/12/16 00:24:17;;;;;;;13.52;7.57;;;7.50;99.90;;;;;;5020034;28;20554;-79
2020/12/16 00:26:43;;;;;;;18.45;7.03;;;7.50;99.90;;;;;;5017287;28;20026;-80
2020/12/16 00:29:10;;;;;;;13.73;8.25;;;7.50;99.90;;;;;;5014216;28;20040;-80
2020/12/16 00:31:37;;;;;;;15.15;8.10;;;7.40;99.90;;;;;;5016481;28;20034;-80
2020/12/16 00:34:05;;;;;;;14.00;6.97;;;7.40;99.90;;;;;;5011945;28;20064;-80
2020/12/16 00:36:37;;;;;;;15.15;7.50;;;7.40;99.90;;;;;;5016440;28;20030;-80
2020/12/16 00:39:04;;;;;;;18.63;7.78;;;7.40;99.90;;;;;;5012462;28;20111;-79
2020/12/16 00:41:31;;;;;;;18.40;7.53;;;7.30;99.90;;;;;;5015396;28;20033;-79
2020/12/16 00:43:58;;;;;;;15.18;7.57;;;7.30;99.90;;;;;;4994401;28;20063;-79
2020/12/16 00:46:23;;;;;;;12.25;7.45;;;7.30;99.90;;;;;;5015477;28;20488;-80
2020/12/16 00:48:49;;;;;;;14.70;7.43;;;7.30;99.90;;;;;;5014482;28;20034;-78
2020/12/16 00:51:14;;;;;;;13.07;7.35;;;7.20;99.90;;;;;;5013247;28;20026;-77
2020/12/16 00:53:40;;;;;;;25.25;8.52;;;7.20;99.90;;;;;;5013861;28;20711;-79
2020/12/16 00:56:05;;;;;;;16.05;7.90;;;7.20;99.90;;;;;;5013895;28;20453;-79
2020/12/16 00:58:31;;;;;;;16.02;7.90;;;7.20;99.90;;;;;;5019548;28;20022;-78
2020/12/16 01:00:56;;;;;;;14.32;7.88;;;7.20;99.90;;;;;;5022933;28;20046;-78
2020/12/16 01:03:22;;;;;;;11.70;6.85;;;7.10;99.90;;;;;;5006122;28;20149;-78
2020/12/16 01:05:47;;;;;;;19.30;8.05;;;7.10;99.90;;;;;;5016746;28;20414;-79
2020/12/16 01:08:13;;;;;;;14.52;7.60;;;7.10;99.90;;;;;;5010502;28;20033;-78
2020/12/16 01:10:39;;;;;;;22.27;9.80;;;7.10;99.90;;;;;;5019496;28;20034;-77
2020/12/16 01:13:04;;;;;;;18.38;8.43;;;7.20;99.90;;;;;;5024516;28;20108;-78
2020/12/16 01:15:30;;;;;;;15.70;8.18;;;7.20;99.90;;;;;;5001809;28;20034;-79
2020/12/16 01:17:55;;;;;;;20.02;8.27;;;7.20;99.90;;;;;;5017701;28;20060;-77
2020/12/16 01:20:21;;;;;;;13.85;7.95;;;7.20;99.90;;;;;;5017396;28;20512;-79
2020/12/16 01:22:48;;;;;;;19.20;8.48;;;7.20;99.90;;;;;;4998164;28;20049;-79
2020/12/16 01:25:19;;;;;;;21.17;9.23;;;7.30;99.90;;;;;;5016416;28;20034;-79
2020/12/16 01:27:44;;;;;;;15.02;8.55;;;7.40;99.90;;;;;;5016811;28;20046;-79
2020/12/16 01:30:11;;;;;;;23.05;8.75;;;7.40;99.90;;;;;;5017301;28;20044;-79
2020/12/16 01:32:37;;;;;;;16.17;9.18;;;7.50;99.90;;;;;;5016235;28;20515;-77
2020/12/16 01:35:09;;;;;;;16.55;9.10;;;7.50;99.90;;;;;;5016479;28;20049;-79
2020/12/16 01:37:36;;;;;;;15.75;9.38;;;7.60;99.90;;;;;;5014384;28;20655;-75
2020/12/16 01:40:08;;;;;;;20.73;9.45;;;7.60;99.90;;;;;;5017659;28;20382;-78
2020/12/16 01:42:34;;;;;;;23.10;10.35;;;7.70;99.90;;;;;;5025152;28;20048;-77
2020/12/16 01:45:09;;;;;;;21.15;10.43;;;7.70;99.90;;;;;;5025476;28;20122;-78
2020/12/16 01:47:35;;;;;;;18.10;10.45;;;7.70;99.90;;;;;;5024221;28;20030;-77
2020/12/16 01:50:02;;;;;;;21.30;9.27;;;7.70;99.90;;;;;;5024418;28;20049;-81
2020/12/16 01:52:28;;;;;;;21.02;9.88;;;7.70;99.90;;;;;;5019189;28;20042;-79
2020/12/16 01:54:54;;;;;;;23.88;11.32;;;7.80;99.90;;;;;;5021816;28;20144;-81
2020/12/16 01:57:22;;;;;;;15.73;9.45;;;7.80;99.90;;;;;;5021899;28;20033;-77
2020/12/16 01:59:50;;;;;;;17.98;9.32;;;7.80;99.90;;;;;;5003896;28;20034;-77
2020/12/16 02:02:18;;;;;;;17.73;10.15;;;7.80;99.90;;;;;;5027916;28;20398;-76
2020/12/16 02:04:46;;;;;;;16.95;9.95;;;7.80;99.90;;;;;;4983678;28;20651;-79
2020/12/16 02:07:13;;;;;;;18.45;9.00;;;7.90;99.90;;;;;;5002565;28;20034;-78
2020/12/16 02:09:41;;;;;;;20.85;9.07;;;7.80;99.90;;;;;;4995093;28;20031;-79
2020/12/16 02:12:14;;;;;;;18.65;9.60;;;7.90;99.90;;;;;;4995838;28;20417;-79
2020/12/16 02:14:41;;;;;;;14.85;9.05;;;7.90;99.90;;;;;;4993067;28;21033;-79
2020/12/16 02:17:08;;;;;;;19.55;10.07;;;8.00;99.90;;;;;;4993326;28;20037;-80
2020/12/16 02:19:43;;;;;;;16.58;9.30;;;8.00;99.90;;;;;;4998750;28;20129;-80
2020/12/16 02:22:10;;;;;;;17.10;8.80;;;8.00;99.90;;;;;;5025395;28;20102;-78
2020/12/16 02:24:49;;;;;;;16.27;9.30;;;7.90;99.90;;;;;;4997131;28;20034;-79
2020/12/16 02:27:14;;;;;;;17.70;9.30;;;8.00;99.90;;;;;;5016222;28;20441;-79
2020/12/16 02:29:40;;;;;;;16.60;9.25;;;7.90;99.90;;;;;;5011006;28;20048;-80
2020/12/16 02:32:06;;;;;;;15.50;9.32;;;7.90;99.90;;;;;;5022485;28;20044;-77
2020/12/16 02:34:31;;;;;;;21.77;9.73;;;7.90;99.90;;;;;;5023215;28;20037;-82
2020/12/16 02:36:57;;;;;;;22.35;10.52;;;7.90;99.90;;;;;;5015144;28;20045;-79
2020/12/16 02:39:23;;;;;;;17.40;10.05;;;7.90;99.90;;;;;;5023368;28;20040;-79
2020/12/16 02:41:48;;;;;;;17.77;9.63;;;7.90;99.90;;;;;;5020465;28;20082;-80
2020/12/16 02:44:14;;;;;;;16.52;9.65;;;8.00;99.90;;;;;;5015514;28;20037;-79
2020/12/16 02:46:39;;;;;;;17.33;9.95;;;8.00;99.90;;;;;;5013405;28;20427;-79
2020/12/16 02:49:05;;;;;;;19.95;9.73;;;8.00;99.90;;;;;;5003925;28;20032;-79
2020/12/16 02:51:31;;;;;;;16.63;9.15;;;8.00;99.90;;;;;;5015437;28;20478;-80
2020/12/16 02:53:56;;;;;;;18.30;10.18;;;8.00;99.90;;;;;;5013095;28;20026;-78
2020/12/16 02:56:22;;;;;;;22.25;9.07;;;8.00;99.90;;;;;;5013178;28;20038;-78
2020/12/16 02:58:47;;;;;;;23.27;9.65;;;8.00;99.90;;;;;;5016863;28;20022;-77
2020/12/16 03:01:13;;;;;;;17.88;9.90;;;8.00;99.90;;;;;;5019713;28;20560;-77
2020/12/16 03:03:38;;;;;;;16.27;9.02;;;8.00;99.90;;;;;;4994889;28;20049;-78
2020/12/16 03:06:04;;;;;;;14.95;8.77;;;8.10;99.90;;;;;;4998337;28;20034;-80
2020/12/16 03:08:30;;;;;;;21.48;9.63;;;8.10;99.90;;;;;;5012433;28;20105;-78
2020/12/16 03:10:55;;;;;;;14.43;9.18;;;8.10;99.90;;;;;;4997182;28;20046;-79
2020/12/16 03:13:21;;;;;;;15.35;8.75;;;8.10;99.90;;;;;;4996004;28;20604;-81
2020/12/16 03:15:46;;;;;;;17.67;9.02;;;8.10;99.90;;;;;;5011496;28;20520;-80
2020/12/16 03:18:12;;;;;;;17.95;9.57;;;8.10;99.90;;;;;;4998781;28;20030;-80
2020/12/16 03:20:37;;;;;;;14.57;8.35;;;8.00;99.90;;;;;;4999283;28;20052;-78
2020/12/16 03:23:03;;;;;;;18.15;9.55;;;8.10;99.90;;;;;;4999958;28;20052;-79
2020/12/16 03:25:28;;;;;;;15.88;8.93;;;8.10;99.90;;;;;;4999388;28;20058;-79
2020/12/16 03:27:54;;;;;;;18.55;9.38;;;8.10;99.90;;;;;;4997636;28;20077;-79
2020/12/16 03:30:20;;;;;;;16.90;9.07;;;8.10;99.90;;;;;;5001213;28;20033;-78
2020/12/16 03:32:45;;;;;;;16.08;8.23;;;8.10;99.90;;;;;;4992754;28;20030;-77
2020/12/16 03:35:11;;;;;;;16.58;8.85;;;8.10;99.90;;;;;;5009789;28;20041;-78
2020/12/16 03:37:36;;;;;;;16.80;8.45;;;8.10;99.90;;;;;;4994240;28;20101;-79
2020/12/16 03:40:02;;;;;;;14.07;8.52;;;8.10;99.90;;;;;;4996593;28;20099;-78
2020/12/16 03:42:28;;;;;;;20.67;9.18;;;8.10;99.90;;;;;;4991546;28;20062;-78
2020/12/16 03:44:53;;;;;;;16.35;9.00;;;8.10;99.90;;;;;;4993941;28;20042;-78
2020/12/16 03:47:19;;;;;;;15.15;8.25;;;8.10;99.90;;;;;;4999164;28;20030;-78
2020/12/16 03:49:44;;;;;;;18.15;9.02;;;8.00;99.90;;;;;;4995039;28;20027;-77
2020/12/16 03:52:10;;;;;;;18.70;8.93;;;8.00;99.90;;;;;;4996839;28;20027;-77
2020/12/16 03:54:35;;;;;;;16.17;9.85;;;8.00;99.90;;;;;;4995566;28;20049;-77
2020/12/16 03:57:01;;;;;;;15.30;9.50;;;8.00;99.90;;;;;;4992941;28;20031;-79
2020/12/16 03:59:26;;;;;;;20.00;9.90;;;8.00;99.90;;;;;;5003583;28;20045;-79
2020/12/16 04:01:52;;;;;;;18.55;10.48;;;8.00;99.90;;;;;;5014093;28;20045;-79
2020/12/16 04:04:17;;;;;;;19.00;10.18;;;8.00;99.90;;;;;;5010953;28;20033;-79
2020/12/16 04:06:43;;;;;;;18.13;10.90;;;8.00;99.90;;;;;;5018584;28;20107;-79
2020/12/16 04:09:08;;;;;;;18.17;10.52;;;8.00;99.90;;;;;;4997813;28;20739;-78
2020/12/16 04:11:34;;;;;;;17.38;10.48;;;8.10;99.90;;;;;;5012147;28;20026;-79
2020/12/16 04:13:59;;;;;;;20.33;10.43;;;8.00;99.90;;;;;;4995526;28;20030;-79
2020/12/16 04:16:25;;;;;;;17.35;10.75;;;8.00;99.90;;;;;;5023208;28;20026;-79
2020/12/16 04:18:51;;;;;;;19.00;10.38;;;8.00;99.90;;;;;;5017804;28;20026;-78
2020/12/16 04:21:20;;;;;;;19.05;9.20;;;8.00;99.90;;;;;;4996075;28;20746;-78
2020/12/16 04:23:46;;;;;;;15.45;9.25;;;8.00;99.90;;;;;;5013900;28;20041;-79
2020/12/16 04:26:11;;;;;;;14.65;8.35;;;7.90;99.90;;;;;;5015684;28;20121;-79
2020/12/16 04:28:37;;;;;;;15.88;9.27;;;7.90;99.90;;;;;;5020633;28;20093;-78
2020/12/16 04:31:09;;;;;;;16.83;10.07;;;7.80;99.90;;;;;;5009987;28;20037;-78
2020/12/16 04:33:35;;;;;;;15.15;8.68;;;7.70;99.90;;;;;;4998818;28;20578;-78
2020/12/16 04:36:00;;;;;;;14.80;8.70;;;7.80;99.90;;;;;;5016158;28;20026;-79
2020/12/16 04:38:26;;;;;;;18.02;9.30;;;7.80;99.90;;;;;;5018455;28;20045;-77
2020/12/16 04:40:52;;;;;;;14.27;8.43;;;7.60;99.90;;;;;;5022557;28;20041;-78
2020/12/16 04:43:20;;;;;;;15.77;8.95;;;7.60;99.90;;;;;;5020163;28;20034;-79
2020/12/16 04:45:46;;;;;;;15.90;8.55;;;7.60;99.90;;;;;;5008821;28;20076;-79
2020/12/16 04:48:13;;;;;;;14.02;8.35;;;7.50;99.90;;;;;;5024809;28;20083;-78
2020/12/16 04:50:41;;;;;;;17.30;8.60;;;7.40;99.90;;;;;;5023063;28;20045;-78
2020/12/16 04:53:10;;;;;;;18.08;8.60;;;7.40;99.90;;;;;;5012638;28;20044;-79
2020/12/16 04:55:36;;;;;;;15.13;8.82;;;7.30;99.90;;;;;;5003080;28;20038;-77
2020/12/16 04:58:04;;;;;;;15.45;8.60;;;7.30;99.90;;;;;;5018233;28;20034;-78
2020/12/16 05:00:31;;;;;;;16.65;9.57;;;7.20;99.90;;;;;;5017571;28;20408;-79
2020/12/16 05:02:59;;;;;;;19.65;9.63;;;7.10;99.90;;;;;;5020050;28;20076;-80
2020/12/16 05:05:26;;;;;;;22.35;8.98;;;7.10;99.90;;;;;;5006935;28;20295;-78
2020/12/16 05:07:52;;;;;;;20.33;9.18;;;7.00;99.90;;;;;;5000934;28;20136;-79
2020/12/16 05:10:39;;;;;;;16.83;9.40;;;6.90;99.90;;;;;;5023021;28;20046;-80
2020/12/16 05:13:08;;;;;;;17.42;9.77;;;7.00;99.90;;;;;;5013813;28;20092;-79
2020/12/16 05:15:36;;;;;;;19.20;9.80;;;6.90;99.90;;;;;;5005662;28;20503;-80
2020/12/16 05:18:11;;;;;;;20.15;9.60;;;6.90;99.90;;;;;;5002151;28;20637;-78
2020/12/16 05:20:38;;;;;;;21.52;9.93;;;6.90;99.90;;;;;;5020877;28;20484;-79
2020/12/16 05:23:05;;;;;;;20.27;10.57;;;6.90;99.90;;;;;;5012467;28;20673;-79
2020/12/16 05:25:31;;;;;;;24.70;11.27;;;6.80;99.90;;;;;;5021774;28;20037;-80
2020/12/16 05:28:01;;;;;;;23.67;10.93;;;6.80;99.90;;;;;;5017388;28;21079;-79
2020/12/16 05:30:27;;;;;;;23.17;12.35;;;6.90;99.90;;;;;;5003227;28;20113;-79
2020/12/16 05:32:53;;;;;;;21.88;12.05;;;6.90;99.90;;;;;;5017673;28;20128;-79
2020/12/16 05:35:29;;;;;;;23.23;12.02;;;6.90;99.90;;;;;;5014891;28;20064;-80
2020/12/16 05:38:09;;;;;;;30.17;12.45;;;6.90;99.90;;;;;;5023370;28;20041;-79
2020/12/16 05:40:37;;;;;;;22.20;10.88;;;6.90;99.90;;;;;;5020117;28;20041;-80
2020/12/16 05:43:04;;;;;;;30.92;12.32;;;6.90;99.90;;;;;;5021864;28;20037;-79
2020/12/16 05:45:31;;;;;;;19.38;11.35;;;6.90;99.90;;;;;;5019071;28;20084;-80
2020/12/16 05:48:11;;;;;;;21.50;12.40;;;6.90;99.90;;;;;;5019930;28;20132;-81
2020/12/16 05:50:51;;;;;;;24.17;11.70;;;6.90;99.90;;;;;;5002517;28;20041;-78
2020/12/16 05:53:23;;;;;;;20.80;11.13;;;6.90;99.90;;;;;;5020097;28;20029;-79
2020/12/16 05:56:01;;;;;;;22.10;11.57;;;6.90;99.90;;;;;;5002259;28;20033;-79
2020/12/16 05:58:29;;;;;;;22.52;11.75;;;6.90;99.90;;;;;;5019518;28;20083;-79
2020/12/16 06:00:58;;;;;;;20.20;11.10;;;7.00;99.90;;;;;;5018487;28;20042;-79
2020/12/16 06:03:28;;;;;;;22.55;12.20;;;7.00;99.90;;;;;;5019927;28;20621;-80
2020/12/16 06:05:56;;;;;;;21.80;11.98;;;7.00;99.90;;;;;;5002405;28;20068;-80
2020/12/16 06:08:24;;;;;;;24.40;12.07;;;7.10;99.90;;;;;;5019783;28;20503;-80
2020/12/16 06:10:51;;;;;;;18.38;11.43;;;7.10;99.90;;;;;;5019345;28;20057;-80
2020/12/16 06:13:18;;;;;;;22.05;12.32;;;7.10;99.90;;;;;;5019455;28;20038;-79
2020/12/16 06:15:51;;;;;;;19.38;11.13;;;7.10;99.90;;;;;;5018534;28;20069;-79
2020/12/16 06:18:20;;;;;;;18.35;10.82;;;7.10;99.90;;;;;;5003579;28;20044;-79
2020/12/16 06:20:46;;;;;;;25.33;12.07;;;7.10;99.90;;;;;;5020169;28;20044;-80
2020/12/16 06:23:25;;;;;;;17.88;10.75;;;7.00;99.90;;;;;;5022954;28;20041;-80
2020/12/16 06:25:53;;;;;;;16.52;10.18;;;7.10;99.90;;;;;;5009834;28;20037;-78
2020/12/16 06:28:19;;;;;;;19.13;10.77;;;7.10;99.90;;;;;;5024769;28;20053;-78
2020/12/16 06:31:00;;;;;;;17.95;10.52;;;7.10;99.90;;;;;;5025642;28;20045;-79
2020/12/16 06:33:28;;;;;;;19.80;10.80;;;7.10;99.90;;;;;;5020001;28;20038;-79
2020/12/16 06:36:00;;;;;;;24.92;11.80;;;7.10;99.90;;;;;;5023773;28;20708;-79
2020/12/16 06:38:28;;;;;;;20.02;10.60;;;7.00;99.90;;;;;;5000501;28;20057;-79
2020/12/16 06:40:55;;;;;;;18.95;11.13;;;7.10;99.90;;;;;;5006404;28;20065;-79
2020/12/16 06:43:30;;;;;;;17.48;11.20;;;7.00;99.90;;;;;;5019793;28;20033;-80
2020/12/16 06:45:56;;;;;;;17.85;10.88;;;7.00;99.90;;;;;;5018016;28;20046;-80
2020/12/16 06:48:38;;;;;;;19.90;11.00;;;6.90;99.90;;;;;;5016276;28;20034;-80
2020/12/16 06:51:18;;;;;;;18.90;11.25;;;6.90;99.90;;;;;;5019318;28;20496;-79
2020/12/16 06:53:44;;;;;;;18.58;10.13;;;6.90;99.90;;;;;;5012917;28;20042;-79
2020/12/16 06:56:11;;;;;;;17.90;10.00;;;6.90;99.90;;;;;;5020338;28;20116;-79
2020/12/16 06:58:38;;;;;;;20.75;10.38;;;7.00;99.90;;;;;;5003652;28;20045;-79
2020/12/16 07:01:10;;;;;;;23.42;11.38;;;6.90;99.90;;;;;;5019870;28;20043;-80
2020/12/16 07:03:36;;;;;;;23.60;10.68;;;6.90;99.90;;;;;;5019504;28;20029;-81
2020/12/16 07:06:02;;;;;;;19.55;10.57;;;6.90;99.90;;;;;;5016164;28;20042;-79
2020/12/16 07:08:28;;;;;;;20.80;10.73;;;6.90;99.90;;;;;;5019134;28;20475;-79
2020/12/16 07:10:55;;;;;;;23.80;10.82;;;6.90;99.90;;;;;;5020619;28;20037;-78
2020/12/16 07:13:26;;;;;;;19.92;10.77;;;6.90;99.90;;;;;;5002670;28;20059;-79
2020/12/16 07:16:07;;;;;;;20.15;10.07;;;6.90;99.90;;;;;;5020467;28;20033;-77
2020/12/16 07:18:39;;;;;;;18.13;10.23;;;7.00;99.90;;;;;;5023876;28;20049;-80
2020/12/16 07:21:07;;;;;;;19.20;10.15;;;6.90;99.90;;;;;;5007433;28;20046;-78
2020/12/16 07:23:43;;;;;;;21.23;10.15;;;7.00;99.90;;;;;;5019345;28;20044;-78
2020/12/16 07:26:11;;;;;;;21.23;9.73;;;7.00;99.90;;;;;;5021167;28;20038;-79
2020/12/16 07:28:38;;;;;;;24.60;10.82;;;7.00;99.90;;;;;;5017498;28;21428;-80
2020/12/16 07:31:05;;;;;;;23.17;10.60;;;7.00;99.90;;;;;;5018508;28;20040;-80
2020/12/16 07:33:31;;;;;;;21.55;9.55;;;6.90;99.90;;;;;;5017199;28;20061;-80
2020/12/16 07:35:58;;;;;;;19.52;10.52;;;7.00;99.90;;;;;;5011399;28;20042;-80
2020/12/16 07:38:24;;;;;;;23.15;10.38;;;7.00;99.90;;;;;;5021574;28;20036;-80
2020/12/16 07:40:53;;;;;;;21.17;9.88;;;7.00;99.90;;;;;;5009245;28;20033;-81
2020/12/16 07:43:20;;;;;;;16.33;9.85;;;7.00;99.90;;;;;;5021688;28;20117;-80
2020/12/16 07:46:06;;;;;;;22.27;10.07;;;7.00;99.90;;;;;;5027824;28;20073;-81
2020/12/16 07:48:33;;;;;;;26.88;10.23;;;7.00;99.90;;;;;;5023107;28;20038;-79
2020/12/16 07:51:07;;;;;;;18.70;10.27;;;7.10;99.90;;;;;;5020049;28;20094;-80
2020/12/16 07:53:42;;;;;;;19.58;10.23;;;7.00;99.90;;;;;;5017088;28;20102;-78
2020/12/16 07:56:08;;;;;;;14.75;9.18;;;7.00;99.90;;;;;;5014930;28;20025;-79
2020/12/16 07:58:33;;;;;;;15.32;9.02;;;7.00;99.90;;;;;;5016099;28;20078;-80
2020/12/16 08:01:10;;;;;;;16.08;8.75;;;7.00;99.90;;;;;;5021640;28;20042;-79
2020/12/16 08:03:37;;;;;;;17.95;9.40;;;7.10;99.90;;;;;;5024519;28;20256;-78
2020/12/16 08:06:04;;;;;;;16.60;8.05;;;7.00;99.90;;;;;;5029153;28;20041;-79
2020/12/16 08:08:30;;;;;;;21.15;8.32;;;7.10;99.90;;;;;;5030446;28;20034;-78
2020/12/16 08:10:56;;;;;;;14.80;8.32;;;7.00;99.90;;;;;;5031978;28;20041;-78
2020/12/16 08:13:24;;;;;;;16.27;7.53;;;7.10;99.90;;;;;;5033117;28;20042;-78
2020/12/16 08:15:50;;;;;;;14.45;7.90;;;7.10;99.90;;;;;;5008846;28;20068;-78
2020/12/16 08:18:23;;;;;;;15.48;8.07;;;7.10;99.90;;;;;;4999571;28;20061;-81
2020/12/16 08:20:49;;;;;;;19.95;8.48;;;7.10;99.90;;;;;;5032625;28;20046;-78
2020/12/16 08:23:14;;;;;;;16.15;8.40;;;7.10;99.90;;;;;;5033346;28;20080;-79
2020/12/16 08:25:43;;;;;;;12.73;7.35;;;7.20;99.90;;;;;;5023086;28;20097;-81
2020/12/16 08:28:09;;;;;;;14.93;7.35;;;7.20;99.90;;;;;;5030145;28;20030;-79
2020/12/16 08:30:38;;;;;;;12.68;7.15;;;7.30;99.90;;;;;;5032499;28;20041;-79
2020/12/16 08:33:13;;;;;;;13.13;7.68;;;7.30;99.90;;;;;;5022303;28;20042;-79
2020/12/16 08:35:45;;;;;;;14.68;7.45;;;7.50;99.90;;;;;;5022008;28;20152;-81
2020/12/16 08:38:17;;;;;;;15.43;7.38;;;7.60;99.90;;;;;;5025667;28;20037;-79
2020/12/16 08:40:47;;;;;;;20.25;6.80;;;7.70;99.90;;;;;;4984859;28;20517;-78
2020/12/16 08:43:24;;;;;;;16.73;7.47;;;7.80;99.90;;;;;;5017572;28;20621;-78
2020/12/16 08:46:19;;;;;;;9.93;6.13;;;7.70;99.90;;;;;;5020824;28;20065;-81
2020/12/16 08:48:59;;;;;;;11.90;6.63;;;7.90;99.90;;;;;;5018091;28;20113;-80
2020/12/16 08:51:43;;;;;;;10.43;6.25;;;7.90;99.90;;;;;;5016097;28;20034;-80
2020/12/16 08:54:17;;;;;;;11.07;6.38;;;7.80;99.90;;;;;;5012666;28;20059;-80
2020/12/16 08:56:50;;;;;;;;;;;7.90;99.90;;;;;;5013933;28;20046;-79
2020/12/16 08:59:18;;;;;;;10.00;6.20;;;7.90;99.90;;;;;;4995902;28;19970;-80
2020/12/16 09:01:52;;;;;;;10.43;5.65;;;7.90;99.90;;;;;;5013677;28;20068;-80
2020/12/16 09:04:44;;;;;;;10.95;5.78;;;7.90;99.90;;;;;;5013551;28;20026;-80
2020/12/16 09:07:22;;;;;;;14.13;7.40;;;8.00;99.90;;;;;;5015098;28;20026;-79
2020/12/16 09:09:47;;;;;;;10.52;6.15;;;8.10;99.90;;;;;;5013846;28;20072;-80
2020/12/16 09:12:15;;;;;;;9.73;5.80;;;8.30;99.90;;;;;;5019210;28;20677;-81
2020/12/16 09:14:53;;;;;;;15.35;6.20;;;8.30;99.90;;;;;;5000922;28;20060;-81
2020/12/16 09:17:23;;;;;;;17.45;7.50;;;8.30;99.90;;;;;;5019184;28;20068;-81
2020/12/16 09:19:48;;;;;;;13.20;5.85;;;8.30;99.90;;;;;;5016646;28;20041;-80
2020/12/16 09:22:14;;;;;;;9.60;4.95;;;8.30;99.90;;;;;;5023818;28;20072;-78
2020/12/16 09:24:40;;;;;;;8.80;5.07;;;8.30;99.90;;;;;;5002453;28;20876;-79
2020/12/16 09:27:07;;;;;;;9.93;5.70;;;8.30;99.90;;;;;;5019942;28;20073;-81
2020/12/16 09:29:34;;;;;;;8.13;5.15;;;8.20;99.90;;;;;;5020294;28;20527;-83
2020/12/16 09:32:09;;;;;;;13.15;5.82;;;8.30;99.90;;;;;;5013129;28;20050;-79
2020/12/16 09:34:49;;;;;;;8.23;5.07;;;8.30;99.90;;;;;;5009001;28;20030;-78
2020/12/16 09:37:23;;;;;;;10.07;5.88;;;8.50;99.90;;;;;;5006692;28;20034;-80
2020/12/16 09:39:50;;;;;;;13.68;5.35;;;8.50;99.90;;;;;;4997574;28;20042;-78
2020/12/16 09:42:19;;;;;;;11.30;5.80;;;8.50;99.90;;;;;;5014364;28;20060;-79
2020/12/16 09:44:46;;;;;;;16.27;6.35;;;8.50;99.90;;;;;;5005089;28;20045;-79
2020/12/16 09:47:17;;;;;;;12.43;5.53;;;8.60;99.90;;;;;;5014590;28;20022;-81
2020/12/16 09:49:46;;;;;;;11.80;5.93;;;8.70;99.90;;;;;;5013755;28;20037;-82
2020/12/16 09:52:25;;;;;;;13.30;4.93;;;8.80;99.90;;;;;;5014770;28;20042;-80
2020/12/16 09:54:51;;;;;;;8.32;4.88;;;8.90;99.90;;;;;;5000143;28;20050;-80
2020/12/16 09:57:19;;;;;;;16.25;5.05;;;8.90;99.90;;;;;;5019093;28;20038;-81
2020/12/16 09:59:45;;;;;;;12.23;5.20;;;9.00;99.90;;;;;;5018459;28;20056;-79
2020/12/16 10:02:10;;;;;;;8.25;5.20;;;9.00;99.90;;;;;;5018886;28;20504;-78
2020/12/16 10:04:36;;;;;;;18.60;5.10;;;8.90;99.90;;;;;;5019854;28;20034;-80
2020/12/16 10:07:03;;;;;;;10.15;5.50;;;9.00;99.90;;;;;;5024117;28;20041;-82
2020/12/16 10:09:28;;;;;;;9.40;5.40;;;9.10;99.90;;;;;;5024385;28;20544;-82
2020/12/16 10:11:54;;;;;;;10.68;6.22;;;9.00;99.90;;;;;;5018709;28;20030;-81
2020/12/16 10:14:19;;;;;;;10.00;5.78;;;9.00;99.90;;;;;;5002292;28;20069;-80
2020/12/16 10:16:46;;;;;;;15.70;5.90;;;9.00;99.90;;;;;;5021449;28;20034;-79
2020/12/16 10:19:13;;;;;;;11.18;5.53;;;9.00;99.90;;;;;;5019812;28;20040;-79
2020/12/16 10:21:40;;;;;;;20.38;6.90;;;9.10;99.90;;;;;;5000022;28;20041;-79
2020/12/16 10:24:06;;;;;;;10.65;6.28;;;9.10;99.90;;;;;;5018602;28;20091;-79
2020/12/16 10:26:31;;;;;;;12.93;5.57;;;9.20;99.90;;;;;;5002617;28;20022;-79
2020/12/16 10:28:57;;;;;;;12.35;6.43;;;9.30;99.90;;;;;;5016281;28;20117;-79
2020/12/16 10:31:22;;;;;;;10.90;6.45;;;9.30;99.90;;;;;;5029599;28;20025;-82
2020/12/16 10:33:48;;;;;;;11.10;6.43;;;9.40;99.90;;;;;;5023445;28;20694;-79
2020/12/16 10:36:13;;;;;;;14.63;6.40;;;9.30;99.90;;;;;;5015094;28;20034;-79
2020/12/16 10:38:39;;;;;;;14.00;6.78;;;9.40;99.90;;;;;;5014435;28;20044;-80
2020/12/16 10:41:04;;;;;;;14.23;6.75;;;9.50;99.90;;;;;;5022456;28;20051;-79
2020/12/16 10:43:30;;;;;;;17.45;7.20;;;9.60;99.90;;;;;;5021202;28;20037;-78
2020/12/16 10:45:55;;;;;;;11.75;6.65;;;9.60;99.90;;;;;;5029116;28;20110;-78
2020/12/16 10:48:21;;;;;;;16.25;7.35;;;9.60;99.90;;;;;;5031050;28;20195;-79
2020/12/16 10:50:47;;;;;;;12.02;7.38;;;9.60;99.90;;;;;;5027500;28;20071;-79
2020/12/16 10:53:12;;;;;;;14.80;8.05;;;9.60;99.90;;;;;;5027886;28;20037;-81
2020/12/16 10:55:38;;;;;;;14.90;7.72;;;9.70;99.90;;;;;;5020129;28;20141;-79
2020/12/16 10:58:04;;;;;;;21.02;7.50;;;9.70;99.90;;;;;;5020897;28;20100;-80
2020/12/16 11:00:29;;;;;;;23.13;8.80;;;9.70;99.90;;;;;;5006640;28;20038;-79
2020/12/16 11:02:55;;;;;;;17.00;7.68;;;9.80;99.90;;;;;;5015749;28;20063;-80
2020/12/16 11:05:20;;;;;;;28.25;8.60;;;9.80;99.90;;;;;;5025071;28;20280;-79
2020/12/16 11:07:46;;;;;;;17.20;8.35;;;9.90;99.90;;;;;;5026108;28;20041;-81
2020/12/16 11:10:11;;;;;;;15.13;8.35;;;10.00;99.90;;;;;;5032963;28;20030;-79
2020/12/16 11:12:37;;;;;;;22.63;8.80;;;10.00;99.90;;;;;;5018226;28;20165;-80
2020/12/16 11:15:03;;;;;;;22.30;8.60;;;10.00;99.90;;;;;;5031647;28;20041;-79
2020/12/16 11:17:29;;;;;;;16.55;7.95;;;10.00;99.90;;;;;;5032150;28;20030;-79
2020/12/16 11:19:54;;;;;;;17.52;7.88;;;10.10;99.90;;;;;;5026644;28;20155;-82
2020/12/16 11:22:20;;;;;;;14.40;7.93;;;10.10;99.90;;;;;;5022252;28;20041;-80
2020/12/16 11:24:46;;;;;;;19.35;8.30;;;10.10;99.90;;;;;;5020870;28;20452;-79
2020/12/16 11:27:12;;;;;;;15.77;8.13;;;10.10;99.90;;;;;;5003237;28;20037;-78
2020/12/16 11:29:37;;;;;;;18.05;8.75;;;10.10;99.90;;;;;;5026025;28;20049;-81
2020/12/16 11:32:04;;;;;;;18.85;9.00;;;10.20;99.90;;;;;;5026172;28;20026;-79
2020/12/16 11:34:32;;;;;;;16.20;8.75;;;10.30;99.90;;;;;;5011909;28;20033;-79
2020/12/16 11:37:00;;;;;;;17.77;8.82;;;10.30;99.90;;;;;;5029583;28;20034;-80
2020/12/16 11:39:26;;;;;;;22.33;8.88;;;10.40;99.90;;;;;;5030510;28;20061;-79
2020/12/16 11:41:53;;;;;;;16.40;8.68;;;10.40;99.90;;;;;;5021828;28;20041;-79
2020/12/16 11:44:20;;;;;;;20.48;10.00;;;10.60;99.90;;;;;;5031597;28;20136;-79
2020/12/16 11:46:46;;;;;;;18.55;7.82;;;10.60;99.90;;;;;;5007121;28;20041;-78
2020/12/16 11:49:12;;;;;;;21.98;8.75;;;10.70;99.90;;;;;;5010905;28;20026;-79
2020/12/16 11:51:38;;;;;;;21.30;8.88;;;10.70;99.90;;;;;;5033727;28;20029;-79
2020/12/16 11:54:04;;;;;;;16.40;9.52;;;10.80;99.90;;;;;;5021967;28;20069;-79
2020/12/16 11:56:32;;;;;;;16.20;8.80;;;10.80;99.90;;;;;;5016348;28;20088;-81
2020/12/16 11:58:58;;;;;;;17.15;8.68;;;10.70;99.90;;;;;;5033011;28;20041;-80
2020/12/16 12:01:23;;;;;;;15.82;8.15;;;10.70;99.90;;;;;;5030452;28;20061;-78
2020/12/16 12:03:49;;;;;;;17.73;9.02;;;10.70;99.60;;;;;;5042050;28;20045;-82
2020/12/16 12:06:15;;;;;;;20.60;8.95;;;10.70;99.80;;;;;;5026879;28;20037;-80
2020/12/16 12:08:42;;;;;;;19.85;8.48;;;10.70;99.60;;;;;;5028303;28;20022;-79
2020/12/16 12:11:11;;;;;;;22.52;9.68;;;10.70;99.90;;;;;;5031087;28;20105;-78
2020/12/16 12:13:37;;;;;;;17.23;8.95;;;10.80;99.90;;;;;;5032348;28;20145;-79
2020/12/16 12:16:02;;;;;;;16.02;8.20;;;10.80;99.70;;;;;;5017255;28;20121;-79
2020/12/16 12:18:28;;;;;;;17.23;8.13;;;10.90;99.90;;;;;;5019089;28;20068;-80
2020/12/16 12:20:53;;;;;;;16.30;8.68;;;10.90;99.30;;;;;;5031015;28;20038;-79
2020/12/16 12:23:19;;;;;;;24.33;10.20;;;10.80;99.00;;;;;;5018314;28;20042;-81
2020/12/16 12:25:44;;;;;;;13.68;8.05;;;10.90;99.00;;;;;;5027361;28;20056;-81
2020/12/16 12:28:10;;;;;;;14.15;8.02;;;11.00;98.10;;;;;;5024841;28;20041;-80
2020/12/16 12:30:36;;;;;;;18.25;9.05;;;11.10;97.70;;;;;;5030339;28;20045;-80
2020/12/16 12:33:03;;;;;;;20.08;8.88;;;11.10;97.10;;;;;;5029310;28;20037;-81
2020/12/16 12:35:29;;;;;;;18.70;9.30;;;11.20;97.30;;;;;;5030383;28;20033;-81
2020/12/16 12:37:55;;;;;;;21.95;8.63;;;11.20;96.90;;;;;;5008335;28;20038;-80
2020/12/16 12:40:21;;;;;;;19.15;9.27;;;11.30;96.60;;;;;;5019497;28;20104;-81
2020/12/16 12:42:47;;;;;;;14.57;7.65;;;11.40;96.60;;;;;;5011310;28;20034;-82
2020/12/16 12:45:12;;;;;;;17.00;8.18;;;11.50;95.90;;;;;;5004759;28;20050;-81
2020/12/16 12:47:39;;;;;;;19.73;8.50;;;11.60;95.40;;;;;;5023750;28;20080;-79